sensor_id;sensor_type;location;lat;lon;timestamp;P1;durP1;ratioP1;P2;durP2;ratioP2
14171;SDS011;7165;52.388;4.928;2023-10-31T00:02:00;10.50;;;8.82;;
14171;SDS011;7165;52.388;4.928;2023-10-31T00:04:27;10.90;;;7.72;;
14171;SDS011;7165;52.388;4.928;2023-10-31T00:06:53;9.18;;;7.90;;
14171;SDS011;7165;52.388;4.928;2023-10-31T00:09:20;10.52;;;8.90;;
14171;SDS011;7165;52.388;4.928;2023-10-31T00:11:47;13.23;;;9.45;;
14171;SDS011;7165;52.388;4.928;2023-10-31T00:14:13;10.68;;;8.20;;
14171;SDS011;7165;52.388;4.928;2023-10-31T00:16:40;13.25;;;8.90;;
14171;SDS011;7165;52.388;4.928;2023-10-31T00:19:08;10.23;;;8.13;;
14171;SDS011;7165;52.388;4.928;2023-10-31T00:21:34;13.07;;;8.32;;
14171;SDS011;7165;52.388;4.928;2023-10-31T00:24:01;10.65;;;9.13;;
14171;SDS011;7165;52.388;4.928;2023-10-31T00:26:29;10.52;;;8.07;;
14171;SDS011;7165;52.388;4.928;2023-10-31T00:28:55;13.35;;;9.60;;
14171;SDS011;7165;52.388;4.928;2023-10-31T00:31:22;15.55;;;8.50;;
14171;SDS011;7165;52.388;4.928;2023-10-31T00:33:48;10.63;;;9.05;;
14171;SDS011;7165;52.388;4.928;2023-10-31T00:36:16;13.68;;;9.13;;
14171;SDS011;7165;52.388;4.928;2023-10-31T00:38:43;11.80;;;10.35;;
14171;SDS011;7165;52.388;4.928;2023-10-31T00:41:10;12.10;;;8.77;;
14171;SDS011;7165;52.388;4.928;2023-10-31T00:43:36;11.55;;;9.20;;
14171;SDS011;7165;52.388;4.928;2023-10-31T00:46:03;11.48;;;9.00;;
14171;SDS011;7165;52.388;4.928;2023-10-31T00:48:30;10.77;;;9.52;;
14171;SDS011;7165;52.388;4.928;2023-10-31T00:51:01;13.38;;;10.32;;
14171;SDS011;7165;52.388;4.928;2023-10-31T00:53:29;12.00;;;10.50;;
14171;SDS011;7165;52.388;4.928;2023-10-31T00:55:56;14.40;;;10.40;;
14171;SDS011;7165;52.388;4.928;2023-10-31T00:58:23;18.88;;;10.25;;
14171;SDS011;7165;52.388;4.928;2023-10-31T01:00:50;13.43;;;9.20;;
14171;SDS011;7165;52.388;4.928;2023-10-31T01:03:16;15.07;;;8.88;;
14171;SDS011;7165;52.388;4.928;2023-10-31T01:05:43;13.10;;;8.85;;
14171;SDS011;7165;52.388;4.928;2023-10-31T01:08:09;10.35;;;8.65;;
14171;SDS011;7165;52.388;4.928;2023-10-31T01:10:37;13.93;;;7.47;;
14171;SDS011;7165;52.388;4.928;2023-10-31T01:13:04;9.55;;;7.30;;
14171;SDS011;7165;52.388;4.928;2023-10-31T01:15:31;11.73;;;8.23;;
14171;SDS011;7165;52.388;4.928;2023-10-31T01:17:58;14.27;;;7.60;;
14171;SDS011;7165;52.388;4.928;2023-10-31T01:20:24;15.65;;;7.72;;
14171;SDS011;7165;52.388;4.928;2023-10-31T01:22:51;10.82;;;7.10;;
14171;SDS011;7165;52.388;4.928;2023-10-31T01:25:18;9.38;;;7.50;;
14171;SDS011;7165;52.388;4.928;2023-10-31T01:27:46;10.30;;;8.20;;
14171;SDS011;7165;52.388;4.928;2023-10-31T01:30:13;10.55;;;7.40;;
14171;SDS011;7165;52.388;4.928;2023-10-31T01:32:39;11.57;;;8.68;;
14171;SDS011;7165;52.388;4.928;2023-10-31T01:35:06;11.25;;;7.50;;
14171;SDS011;7165;52.388;4.928;2023-10-31T01:37:33;8.95;;;7.00;;
14171;SDS011;7165;52.388;4.928;2023-10-31T01:40:00;11.50;;;6.82;;
14171;SDS011;7165;52.388;4.928;2023-10-31T01:42:27;8.18;;;5.78;;
14171;SDS011;7165;52.388;4.928;2023-10-31T01:44:55;11.50;;;5.97;;
14171;SDS011;7165;52.388;4.928;2023-10-31T01:47:21;10.90;;;5.80;;
14171;SDS011;7165;52.388;4.928;2023-10-31T01:49:49;6.25;;;5.47;;
14171;SDS011;7165;52.388;4.928;2023-10-31T01:52:16;5.78;;;4.80;;
14171;SDS011;7165;52.388;4.928;2023-10-31T01:54:43;8.57;;;4.93;;
14171;SDS011;7165;52.388;4.928;2023-10-31T01:57:10;7.78;;;5.00;;
14171;SDS011;7165;52.388;4.928;2023-10-31T01:59:37;8.02;;;4.90;;
14171;SDS011;7165;52.388;4.928;2023-10-31T02:02:06;6.88;;;4.43;;
14171;SDS011;7165;52.388;4.928;2023-10-31T02:04:33;5.50;;;3.70;;
14171;SDS011;7165;52.388;4.928;2023-10-31T02:07:00;4.88;;;3.35;;
14171;SDS011;7165;52.388;4.928;2023-10-31T02:09:26;4.60;;;3.25;;
14171;SDS011;7165;52.388;4.928;2023-10-31T02:11:54;8.77;;;3.22;;
14171;SDS011;7165;52.388;4.928;2023-10-31T02:14:21;3.25;;;3.05;;
14171;SDS011;7165;52.388;4.928;2023-10-31T02:16:49;2.92;;;2.55;;
14171;SDS011;7165;52.388;4.928;2023-10-31T02:19:18;4.47;;;2.95;;
14171;SDS011;7165;52.388;4.928;2023-10-31T02:21:47;2.30;;;2.10;;
14171;SDS011;7165;52.388;4.928;2023-10-31T02:24:14;4.20;;;2.65;;
14171;SDS011;7165;52.388;4.928;2023-10-31T02:26:41;2.70;;;2.10;;
14171;SDS011;7165;52.388;4.928;2023-10-31T02:29:07;4.72;;;2.45;;
14171;SDS011;7165;52.388;4.928;2023-10-31T02:31:34;5.75;;;2.55;;
14171;SDS011;7165;52.388;4.928;2023-10-31T02:34:01;2.80;;;2.60;;
14171;SDS011;7165;52.388;4.928;2023-10-31T02:36:27;3.53;;;2.20;;
14171;SDS011;7165;52.388;4.928;2023-10-31T02:38:55;2.33;;;2.10;;
14171;SDS011;7165;52.388;4.928;2023-10-31T02:41:22;5.18;;;2.25;;
14171;SDS011;7165;52.388;4.928;2023-10-31T02:43:49;3.20;;;2.10;;
14171;SDS011;7165;52.388;4.928;2023-10-31T02:46:16;3.35;;;1.77;;
14171;SDS011;7165;52.388;4.928;2023-10-31T02:48:44;4.50;;;2.03;;
14171;SDS011;7165;52.388;4.928;2023-10-31T02:51:11;2.63;;;2.13;;
14171;SDS011;7165;52.388;4.928;2023-10-31T02:53:37;3.13;;;2.15;;
14171;SDS011;7165;52.388;4.928;2023-10-31T02:56:06;2.08;;;1.88;;
14171;SDS011;7165;52.388;4.928;2023-10-31T02:58:33;2.38;;;1.92;;
14171;SDS011;7165;52.388;4.928;2023-10-31T03:01:00;4.00;;;2.28;;
14171;SDS011;7165;52.388;4.928;2023-10-31T03:03:26;3.05;;;1.90;;
14171;SDS011;7165;52.388;4.928;2023-10-31T03:05:53;2.42;;;1.80;;
14171;SDS011;7165;52.388;4.928;2023-10-31T03:08:20;2.55;;;1.60;;
14171;SDS011;7165;52.388;4.928;2023-10-31T03:10:47;2.15;;;1.80;;
14171;SDS011;7165;52.388;4.928;2023-10-31T03:13:17;1.85;;;1.75;;
14171;SDS011;7165;52.388;4.928;2023-10-31T03:15:43;2.83;;;1.85;;
14171;SDS011;7165;52.388;4.928;2023-10-31T03:18:10;2.67;;;1.77;;
14171;SDS011;7165;52.388;4.928;2023-10-31T03:20:37;2.50;;;1.60;;
14171;SDS011;7165;52.388;4.928;2023-10-31T03:23:03;2.00;;;1.80;;
14171;SDS011;7165;52.388;4.928;2023-10-31T03:25:30;1.88;;;1.50;;
14171;SDS011;7165;52.388;4.928;2023-10-31T03:27:56;2.22;;;1.80;;
14171;SDS011;7165;52.388;4.928;2023-10-31T03:30:24;1.58;;;1.50;;
14171;SDS011;7165;52.388;4.928;2023-10-31T03:32:51;3.78;;;1.80;;
14171;SDS011;7165;52.388;4.928;2023-10-31T03:35:18;2.15;;;1.92;;
14171;SDS011;7165;52.388;4.928;2023-10-31T03:37:44;2.70;;;2.33;;
14171;SDS011;7165;52.388;4.928;2023-10-31T03:40:11;2.35;;;1.98;;
14171;SDS011;7165;52.388;4.928;2023-10-31T03:42:38;1.92;;;1.73;;
14171;SDS011;7165;52.388;4.928;2023-10-31T03:45:05;1.70;;;1.60;;
14171;SDS011;7165;52.388;4.928;2023-10-31T03:47:35;2.05;;;1.60;;
14171;SDS011;7165;52.388;4.928;2023-10-31T03:50:02;2.15;;;1.65;;
14171;SDS011;7165;52.388;4.928;2023-10-31T03:52:28;4.85;;;2.03;;
14171;SDS011;7165;52.388;4.928;2023-10-31T03:54:55;2.60;;;1.67;;
14171;SDS011;7165;52.388;4.928;2023-10-31T03:57:22;3.00;;;2.00;;
14171;SDS011;7165;52.388;4.928;2023-10-31T03:59:48;3.33;;;1.80;;
14171;SDS011;7165;52.388;4.928;2023-10-31T04:02:15;2.15;;;1.80;;
14171;SDS011;7165;52.388;4.928;2023-10-31T04:04:43;6.00;;;1.70;;
14171;SDS011;7165;52.388;4.928;2023-10-31T04:07:09;1.80;;;1.70;;
14171;SDS011;7165;52.388;4.928;2023-10-31T04:09:36;2.50;;;1.73;;
14171;SDS011;7165;52.388;4.928;2023-10-31T04:12:03;1.80;;;1.70;;
14171;SDS011;7165;52.388;4.928;2023-10-31T04:14:30;3.17;;;1.63;;
14171;SDS011;7165;52.388;4.928;2023-10-31T04:16:57;5.78;;;1.90;;
14171;SDS011;7165;52.388;4.928;2023-10-31T04:19:23;2.40;;;1.80;;
14171;SDS011;7165;52.388;4.928;2023-10-31T04:21:52;2.42;;;1.83;;
14171;SDS011;7165;52.388;4.928;2023-10-31T04:24:19;5.68;;;1.77;;
14171;SDS011;7165;52.388;4.928;2023-10-31T04:26:46;4.78;;;1.67;;
14171;SDS011;7165;52.388;4.928;2023-10-31T04:29:12;2.85;;;1.90;;
14171;SDS011;7165;52.388;4.928;2023-10-31T04:31:39;9.65;;;2.67;;
14171;SDS011;7165;52.388;4.928;2023-10-31T04:34:06;1.70;;;1.60;;
14171;SDS011;7165;52.388;4.928;2023-10-31T04:36:32;4.55;;;1.83;;
14171;SDS011;7165;52.388;4.928;2023-10-31T04:39:00;3.75;;;1.85;;
14171;SDS011;7165;52.388;4.928;2023-10-31T04:41:27;1.42;;;1.25;;
14171;SDS011;7165;52.388;4.928;2023-10-31T04:43:54;3.70;;;1.85;;
14171;SDS011;7165;52.388;4.928;2023-10-31T04:46:21;3.50;;;1.80;;
14171;SDS011;7165;52.388;4.928;2023-10-31T04:48:48;2.72;;;1.52;;
14171;SDS011;7165;52.388;4.928;2023-10-31T04:51:14;5.18;;;2.20;;
14171;SDS011;7165;52.388;4.928;2023-10-31T04:53:41;2.78;;;1.95;;
14171;SDS011;7165;52.388;4.928;2023-10-31T04:56:13;1.90;;;1.63;;
14171;SDS011;7165;52.388;4.928;2023-10-31T04:58:40;2.75;;;1.70;;
14171;SDS011;7165;52.388;4.928;2023-10-31T05:01:07;3.50;;;2.17;;
14171;SDS011;7165;52.388;4.928;2023-10-31T05:03:34;3.90;;;1.70;;
14171;SDS011;7165;52.388;4.928;2023-10-31T05:06:01;3.30;;;1.77;;
14171;SDS011;7165;52.388;4.928;2023-10-31T05:08:28;1.65;;;1.50;;
14171;SDS011;7165;52.388;4.928;2023-10-31T05:10:55;3.92;;;1.60;;
14171;SDS011;7165;52.388;4.928;2023-10-31T05:13:23;1.80;;;1.60;;
14171;SDS011;7165;52.388;4.928;2023-10-31T05:15:49;3.08;;;1.90;;
14171;SDS011;7165;52.388;4.928;2023-10-31T05:18:16;4.88;;;2.00;;
14171;SDS011;7165;52.388;4.928;2023-10-31T05:20:43;2.13;;;1.67;;
14171;SDS011;7165;52.388;4.928;2023-10-31T05:23:10;2.15;;;1.88;;
14171;SDS011;7165;52.388;4.928;2023-10-31T05:25:37;2.90;;;2.03;;
14171;SDS011;7165;52.388;4.928;2023-10-31T05:28:03;2.05;;;1.90;;
14171;SDS011;7165;52.388;4.928;2023-10-31T05:30:31;3.17;;;1.85;;
14171;SDS011;7165;52.388;4.928;2023-10-31T05:32:58;3.45;;;2.00;;
14171;SDS011;7165;52.388;4.928;2023-10-31T05:35:25;6.97;;;2.47;;
14171;SDS011;7165;52.388;4.928;2023-10-31T05:37:51;2.40;;;2.03;;
14171;SDS011;7165;52.388;4.928;2023-10-31T05:40:18;6.18;;;2.03;;
14171;SDS011;7165;52.388;4.928;2023-10-31T05:42:47;1.83;;;1.65;;
14171;SDS011;7165;52.388;4.928;2023-10-31T05:45:14;3.00;;;2.17;;
14171;SDS011;7165;52.388;4.928;2023-10-31T05:47:42;3.22;;;2.47;;
14171;SDS011;7165;52.388;4.928;2023-10-31T05:50:08;2.30;;;2.10;;
14171;SDS011;7165;52.388;4.928;2023-10-31T05:52:35;2.13;;;1.83;;
14171;SDS011;7165;52.388;4.928;2023-10-31T05:55:02;2.42;;;1.92;;
14171;SDS011;7165;52.388;4.928;2023-10-31T05:57:29;4.28;;;2.15;;
14171;SDS011;7165;52.388;4.928;2023-10-31T05:59:56;2.65;;;2.38;;
14171;SDS011;7165;52.388;4.928;2023-10-31T06:02:22;2.67;;;2.40;;
14171;SDS011;7165;52.388;4.928;2023-10-31T06:04:50;4.75;;;2.65;;
14171;SDS011;7165;52.388;4.928;2023-10-31T06:07:17;5.90;;;2.90;;
14171;SDS011;7165;52.388;4.928;2023-10-31T06:09:44;4.07;;;3.08;;
14171;SDS011;7165;52.388;4.928;2023-10-31T06:12:10;3.42;;;2.85;;
14171;SDS011;7165;52.388;4.928;2023-10-31T06:14:37;6.28;;;3.10;;
14171;SDS011;7165;52.388;4.928;2023-10-31T06:17:03;4.85;;;2.92;;
14171;SDS011;7165;52.388;4.928;2023-10-31T06:19:34;5.88;;;2.88;;
14171;SDS011;7165;52.388;4.928;2023-10-31T06:22:03;4.10;;;2.20;;
14171;SDS011;7165;52.388;4.928;2023-10-31T06:24:30;2.97;;;2.67;;
14171;SDS011;7165;52.388;4.928;2023-10-31T06:26:56;3.28;;;2.20;;
14171;SDS011;7165;52.388;4.928;2023-10-31T06:29:23;4.78;;;2.50;;
14171;SDS011;7165;52.388;4.928;2023-10-31T06:31:50;4.10;;;3.13;;
14171;SDS011;7165;52.388;4.928;2023-10-31T06:34:16;4.03;;;2.35;;
14171;SDS011;7165;52.388;4.928;2023-10-31T06:36:44;7.47;;;3.20;;
14171;SDS011;7165;52.388;4.928;2023-10-31T06:39:12;5.00;;;2.10;;
14171;SDS011;7165;52.388;4.928;2023-10-31T06:41:38;5.38;;;2.22;;
14171;SDS011;7165;52.388;4.928;2023-10-31T06:44:05;5.35;;;2.63;;
14171;SDS011;7165;52.388;4.928;2023-10-31T06:46:32;2.58;;;2.38;;
14171;SDS011;7165;52.388;4.928;2023-10-31T06:48:58;7.18;;;2.92;;
14171;SDS011;7165;52.388;4.928;2023-10-31T06:51:25;2.75;;;2.50;;
14171;SDS011;7165;52.388;4.928;2023-10-31T06:53:51;3.75;;;2.90;;
14171;SDS011;7165;52.388;4.928;2023-10-31T06:56:19;6.07;;;2.75;;
14171;SDS011;7165;52.388;4.928;2023-10-31T06:58:46;4.85;;;2.90;;
14171;SDS011;7165;52.388;4.928;2023-10-31T07:01:13;3.90;;;3.28;;
14171;SDS011;7165;52.388;4.928;2023-10-31T07:03:43;5.78;;;2.83;;
14171;SDS011;7165;52.388;4.928;2023-10-31T07:06:10;5.35;;;3.38;;
14171;SDS011;7165;52.388;4.928;2023-10-31T07:08:36;4.18;;;3.20;;
14171;SDS011;7165;52.388;4.928;2023-10-31T07:11:03;3.40;;;2.88;;
14171;SDS011;7165;52.388;4.928;2023-10-31T07:13:31;6.13;;;3.10;;
14171;SDS011;7165;52.388;4.928;2023-10-31T07:15:58;5.07;;;3.25;;
14171;SDS011;7165;52.388;4.928;2023-10-31T07:18:24;6.00;;;3.17;;
14171;SDS011;7165;52.388;4.928;2023-10-31T07:20:51;7.22;;;3.72;;
14171;SDS011;7165;52.388;4.928;2023-10-31T07:23:17;4.85;;;3.50;;
14171;SDS011;7165;52.388;4.928;2023-10-31T07:25:44;6.43;;;3.95;;
14171;SDS011;7165;52.388;4.928;2023-10-31T07:28:11;6.55;;;4.43;;
14171;SDS011;7165;52.388;4.928;2023-10-31T07:30:39;5.45;;;4.10;;
14171;SDS011;7165;52.388;4.928;2023-10-31T07:33:06;6.15;;;4.03;;
14171;SDS011;7165;52.388;4.928;2023-10-31T07:35:32;6.20;;;4.47;;
14171;SDS011;7165;52.388;4.928;2023-10-31T07:37:59;5.85;;;4.68;;
14171;SDS011;7165;52.388;4.928;2023-10-31T07:40:25;7.45;;;4.55;;
14171;SDS011;7165;52.388;4.928;2023-10-31T07:42:52;8.75;;;4.43;;
14171;SDS011;7165;52.388;4.928;2023-10-31T07:45:19;8.60;;;4.30;;
14171;SDS011;7165;52.388;4.928;2023-10-31T07:47:47;8.70;;;4.22;;
14171;SDS011;7165;52.388;4.928;2023-10-31T07:50:14;8.55;;;4.45;;
14171;SDS011;7165;52.388;4.928;2023-10-31T07:52:41;7.15;;;4.43;;
14171;SDS011;7165;52.388;4.928;2023-10-31T07:55:11;7.57;;;4.75;;
14171;SDS011;7165;52.388;4.928;2023-10-31T07:57:38;10.50;;;6.05;;
14171;SDS011;7165;52.388;4.928;2023-10-31T08:00:08;8.70;;;5.18;;
14171;SDS011;7165;52.388;4.928;2023-10-31T08:02:36;6.57;;;5.80;;
14171;SDS011;7165;52.388;4.928;2023-10-31T08:05:06;6.25;;;5.65;;
14171;SDS011;7165;52.388;4.928;2023-10-31T08:07:34;6.88;;;6.10;;
14171;SDS011;7165;52.388;4.928;2023-10-31T08:10:01;6.75;;;5.78;;
14171;SDS011;7165;52.388;4.928;2023-10-31T08:12:28;6.55;;;5.55;;
14171;SDS011;7165;52.388;4.928;2023-10-31T08:14:55;8.30;;;5.85;;
14171;SDS011;7165;52.388;4.928;2023-10-31T08:17:23;10.82;;;5.80;;
14171;SDS011;7165;52.388;4.928;2023-10-31T08:19:50;5.47;;;5.05;;
14171;SDS011;7165;52.388;4.928;2023-10-31T08:22:18;6.43;;;5.60;;
14171;SDS011;7165;52.388;4.928;2023-10-31T08:24:45;7.97;;;5.68;;
14171;SDS011;7165;52.388;4.928;2023-10-31T08:27:11;6.38;;;4.43;;
14171;SDS011;7165;52.388;4.928;2023-10-31T08:29:38;5.25;;;4.35;;
14171;SDS011;7165;52.388;4.928;2023-10-31T08:32:05;9.18;;;5.28;;
14171;SDS011;7165;52.388;4.928;2023-10-31T08:34:32;9.15;;;4.25;;
14171;SDS011;7165;52.388;4.928;2023-10-31T08:36:59;7.25;;;3.83;;
14171;SDS011;7165;52.388;4.928;2023-10-31T08:39:27;7.10;;;4.10;;
14171;SDS011;7165;52.388;4.928;2023-10-31T08:41:54;6.05;;;3.80;;
14171;SDS011;7165;52.388;4.928;2023-10-31T08:44:22;4.53;;;3.35;;
14171;SDS011;7165;52.388;4.928;2023-10-31T08:46:49;6.75;;;3.90;;
14171;SDS011;7165;52.388;4.928;2023-10-31T08:49:16;6.20;;;2.90;;
14171;SDS011;7165;52.388;4.928;2023-10-31T08:51:43;4.43;;;3.10;;
14171;SDS011;7165;52.388;4.928;2023-10-31T08:54:10;8.35;;;3.78;;
14171;SDS011;7165;52.388;4.928;2023-10-31T08:56:38;8.27;;;3.65;;
14171;SDS011;7165;52.388;4.928;2023-10-31T08:59:05;4.18;;;3.45;;
14171;SDS011;7165;52.388;4.928;2023-10-31T09:01:32;6.00;;;3.47;;
14171;SDS011;7165;52.388;4.928;2023-10-31T09:03:59;4.40;;;3.75;;
14171;SDS011;7165;52.388;4.928;2023-10-31T09:06:26;5.47;;;3.53;;
14171;SDS011;7165;52.388;4.928;2023-10-31T09:08:52;5.78;;;3.08;;
14171;SDS011;7165;52.388;4.928;2023-10-31T09:11:19;4.18;;;3.08;;
14171;SDS011;7165;52.388;4.928;2023-10-31T09:13:47;6.28;;;3.42;;
14171;SDS011;7165;52.388;4.928;2023-10-31T09:16:14;8.57;;;2.70;;
14171;SDS011;7165;52.388;4.928;2023-10-31T09:18:40;6.63;;;3.13;;
14171;SDS011;7165;52.388;4.928;2023-10-31T09:21:08;3.47;;;3.17;;
14171;SDS011;7165;52.388;4.928;2023-10-31T09:23:35;5.60;;;3.20;;
14171;SDS011;7165;52.388;4.928;2023-10-31T09:26:01;7.45;;;3.10;;
14171;SDS011;7165;52.388;4.928;2023-10-31T09:28:28;2.90;;;2.55;;
14171;SDS011;7165;52.388;4.928;2023-10-31T09:30:56;5.20;;;3.30;;
14171;SDS011;7165;52.388;4.928;2023-10-31T09:33:24;4.53;;;2.92;;
14171;SDS011;7165;52.388;4.928;2023-10-31T09:35:51;3.92;;;2.72;;
14171;SDS011;7165;52.388;4.928;2023-10-31T09:38:18;3.95;;;2.50;;
14171;SDS011;7165;52.388;4.928;2023-10-31T09:40:44;4.50;;;3.15;;
14171;SDS011;7165;52.388;4.928;2023-10-31T09:43:11;4.75;;;2.40;;
14171;SDS011;7165;52.388;4.928;2023-10-31T09:45:38;4.22;;;2.38;;
14171;SDS011;7165;52.388;4.928;2023-10-31T09:48:06;3.42;;;2.45;;
14171;SDS011;7165;52.388;4.928;2023-10-31T09:50:33;7.22;;;3.38;;
14171;SDS011;7165;52.388;4.928;2023-10-31T09:53:00;4.15;;;2.70;;
14171;SDS011;7165;52.388;4.928;2023-10-31T09:55:29;2.75;;;2.25;;
14171;SDS011;7165;52.388;4.928;2023-10-31T09:57:56;4.15;;;2.78;;
14171;SDS011;7165;52.388;4.928;2023-10-31T10:00:23;3.80;;;2.97;;
14171;SDS011;7165;52.388;4.928;2023-10-31T10:02:50;4.97;;;2.45;;
14171;SDS011;7165;52.388;4.928;2023-10-31T10:05:18;3.85;;;2.20;;
14171;SDS011;7165;52.388;4.928;2023-10-31T10:07:46;2.28;;;2.08;;
14171;SDS011;7165;52.388;4.928;2023-10-31T10:10:13;3.25;;;2.63;;
14171;SDS011;7165;52.388;4.928;2023-10-31T10:12:41;6.60;;;2.35;;
14171;SDS011;7165;52.388;4.928;2023-10-31T10:15:08;4.35;;;2.35;;
14171;SDS011;7165;52.388;4.928;2023-10-31T10:17:37;2.92;;;1.83;;
14171;SDS011;7165;52.388;4.928;2023-10-31T10:20:04;6.00;;;2.13;;
14171;SDS011;7165;52.388;4.928;2023-10-31T10:22:34;2.63;;;1.92;;
14171;SDS011;7165;52.388;4.928;2023-10-31T10:25:03;4.90;;;2.03;;
14171;SDS011;7165;52.388;4.928;2023-10-31T10:27:30;3.42;;;1.88;;
14171;SDS011;7165;52.388;4.928;2023-10-31T10:29:57;3.75;;;2.22;;
14171;SDS011;7165;52.388;4.928;2023-10-31T10:32:24;3.67;;;1.88;;
14171;SDS011;7165;52.388;4.928;2023-10-31T10:34:50;3.28;;;2.33;;
14171;SDS011;7165;52.388;4.928;2023-10-31T10:37:17;3.97;;;2.10;;
14171;SDS011;7165;52.388;4.928;2023-10-31T10:39:47;4.22;;;1.95;;
14171;SDS011;7165;52.388;4.928;2023-10-31T10:42:18;3.95;;;2.15;;
14171;SDS011;7165;52.388;4.928;2023-10-31T10:44:47;4.72;;;2.05;;
14171;SDS011;7165;52.388;4.928;2023-10-31T10:47:16;3.45;;;2.05;;
14171;SDS011;7165;52.388;4.928;2023-10-31T10:49:44;4.10;;;1.80;;
14171;SDS011;7165;52.388;4.928;2023-10-31T10:52:16;3.90;;;2.38;;
14171;SDS011;7165;52.388;4.928;2023-10-31T10:54:49;3.00;;;1.70;;
14171;SDS011;7165;52.388;4.928;2023-10-31T10:57:21;3.88;;;1.52;;
14171;SDS011;7165;52.388;4.928;2023-10-31T10:59:58;2.00;;;1.50;;
14171;SDS011;7165;52.388;4.928;2023-10-31T11:02:29;2.42;;;1.10;;
14171;SDS011;7165;52.388;4.928;2023-10-31T11:04:58;3.03;;;1.23;;
14171;SDS011;7165;52.388;4.928;2023-10-31T11:07:25;1.55;;;1.45;;
14171;SDS011;7165;52.388;4.928;2023-10-31T11:09:57;1.30;;;1.20;;
14171;SDS011;7165;52.388;4.928;2023-10-31T11:12:27;5.70;;;1.30;;
14171;SDS011;7165;52.388;4.928;2023-10-31T11:14:55;2.03;;;1.70;;
14171;SDS011;7165;52.388;4.928;2023-10-31T11:17:24;3.53;;;1.50;;
14171;SDS011;7165;52.388;4.928;2023-10-31T11:19:54;3.47;;;1.60;;
14171;SDS011;7165;52.388;4.928;2023-10-31T11:22:21;1.63;;;1.10;;
14171;SDS011;7165;52.388;4.928;2023-10-31T11:24:48;4.47;;;1.52;;
14171;SDS011;7165;52.388;4.928;2023-10-31T11:27:17;2.15;;;1.40;;
14171;SDS011;7165;52.388;4.928;2023-10-31T11:29:44;2.17;;;1.17;;
14171;SDS011;7165;52.388;4.928;2023-10-31T11:32:11;3.88;;;1.60;;
14171;SDS011;7165;52.388;4.928;2023-10-31T11:34:38;2.47;;;1.63;;
14171;SDS011;7165;52.388;4.928;2023-10-31T11:37:18;5.05;;;1.50;;
14171;SDS011;7165;52.388;4.928;2023-10-31T11:42:42;8.38;;;1.40;;
14171;SDS011;7165;52.388;4.928;2023-10-31T11:45:09;1.98;;;1.17;;
14171;SDS011;7165;52.388;4.928;2023-10-31T11:47:45;2.70;;;1.10;;
14171;SDS011;7165;52.388;4.928;2023-10-31T11:50:12;1.33;;;1.20;;
14171;SDS011;7165;52.388;4.928;2023-10-31T11:52:39;1.60;;;1.25;;
14171;SDS011;7165;52.388;4.928;2023-10-31T11:55:07;3.30;;;1.23;;
14171;SDS011;7165;52.388;4.928;2023-10-31T11:57:36;2.15;;;1.05;;
14171;SDS011;7165;52.388;4.928;2023-10-31T12:00:04;1.40;;;1.30;;
14171;SDS011;7165;52.388;4.928;2023-10-31T12:02:32;1.55;;;1.38;;
14171;SDS011;7165;52.388;4.928;2023-10-31T12:05:08;1.52;;;1.30;;
14171;SDS011;7165;52.388;4.928;2023-10-31T12:07:41;3.35;;;2.38;;
14171;SDS011;7165;52.388;4.928;2023-10-31T12:10:08;2.28;;;1.27;;
14171;SDS011;7165;52.388;4.928;2023-10-31T12:12:35;3.88;;;1.75;;
14171;SDS011;7165;52.388;4.928;2023-10-31T12:15:07;2.20;;;1.70;;
14171;SDS011;7165;52.388;4.928;2023-10-31T12:17:34;2.70;;;1.40;;
14171;SDS011;7165;52.388;4.928;2023-10-31T12:20:05;3.05;;;1.55;;
14171;SDS011;7165;52.388;4.928;2023-10-31T12:22:33;2.00;;;1.30;;
14171;SDS011;7165;52.388;4.928;2023-10-31T12:25:00;2.47;;;1.13;;
14171;SDS011;7165;52.388;4.928;2023-10-31T12:27:41;1.70;;;1.60;;
14171;SDS011;7165;52.388;4.928;2023-10-31T12:30:10;3.50;;;1.70;;
14171;SDS011;7165;52.388;4.928;2023-10-31T12:32:38;2.38;;;1.73;;
14171;SDS011;7165;52.388;4.928;2023-10-31T12:35:06;2.22;;;1.65;;
14171;SDS011;7165;52.388;4.928;2023-10-31T12:37:35;4.93;;;2.33;;
14171;SDS011;7165;52.388;4.928;2023-10-31T12:40:02;3.67;;;1.38;;
14171;SDS011;7165;52.388;4.928;2023-10-31T12:42:30;1.65;;;1.30;;
14171;SDS011;7165;52.388;4.928;2023-10-31T12:44:59;1.98;;;1.58;;
14171;SDS011;7165;52.388;4.928;2023-10-31T12:47:27;2.88;;;1.65;;
14171;SDS011;7165;52.388;4.928;2023-10-31T12:50:06;2.55;;;1.45;;
14171;SDS011;7165;52.388;4.928;2023-10-31T12:52:49;2.38;;;1.30;;
14171;SDS011;7165;52.388;4.928;2023-10-31T12:55:18;3.58;;;1.98;;
14171;SDS011;7165;52.388;4.928;2023-10-31T12:57:47;2.75;;;1.48;;
14171;SDS011;7165;52.388;4.928;2023-10-31T13:00:15;3.05;;;1.45;;
14171;SDS011;7165;52.388;4.928;2023-10-31T13:02:50;2.60;;;1.73;;
14171;SDS011;7165;52.388;4.928;2023-10-31T13:05:18;3.47;;;2.03;;
14171;SDS011;7165;52.388;4.928;2023-10-31T13:07:48;2.53;;;2.00;;
14171;SDS011;7165;52.388;4.928;2023-10-31T13:10:16;3.25;;;2.30;;
14171;SDS011;7165;52.388;4.928;2023-10-31T13:12:43;4.38;;;2.40;;
14171;SDS011;7165;52.388;4.928;2023-10-31T13:15:11;2.35;;;2.13;;
14171;SDS011;7165;52.388;4.928;2023-10-31T13:17:38;3.75;;;2.33;;
14171;SDS011;7165;52.388;4.928;2023-10-31T13:20:09;5.53;;;3.63;;
14171;SDS011;7165;52.388;4.928;2023-10-31T13:22:36;5.35;;;3.42;;
14171;SDS011;7165;52.388;4.928;2023-10-31T13:25:03;7.32;;;4.13;;
14171;SDS011;7165;52.388;4.928;2023-10-31T13:27:31;5.47;;;4.15;;
14171;SDS011;7165;52.388;4.928;2023-10-31T13:29:58;5.85;;;4.05;;
14171;SDS011;7165;52.388;4.928;2023-10-31T13:32:24;4.65;;;3.75;;
14171;SDS011;7165;52.388;4.928;2023-10-31T13:34:51;6.80;;;4.68;;
14171;SDS011;7165;52.388;4.928;2023-10-31T13:37:19;6.15;;;3.45;;
14171;SDS011;7165;52.388;4.928;2023-10-31T13:39:45;6.45;;;4.50;;
14171;SDS011;7165;52.388;4.928;2023-10-31T13:42:12;5.40;;;3.40;;
14171;SDS011;7165;52.388;4.928;2023-10-31T13:44:39;4.90;;;2.55;;
14171;SDS011;7165;52.388;4.928;2023-10-31T13:47:06;2.42;;;2.17;;
14171;SDS011;7165;52.388;4.928;2023-10-31T13:49:33;2.53;;;1.73;;
14171;SDS011;7165;52.388;4.928;2023-10-31T13:51:59;2.22;;;1.75;;
14171;SDS011;7165;52.388;4.928;2023-10-31T13:54:27;2.40;;;2.03;;
14171;SDS011;7165;52.388;4.928;2023-10-31T13:56:54;2.20;;;1.98;;
14171;SDS011;7165;52.388;4.928;2023-10-31T13:59:21;2.55;;;2.35;;
14171;SDS011;7165;52.388;4.928;2023-10-31T14:01:47;3.63;;;3.33;;
14171;SDS011;7165;52.388;4.928;2023-10-31T14:04:14;5.28;;;4.30;;
14171;SDS011;7165;52.388;4.928;2023-10-31T14:06:41;6.93;;;5.57;;
14171;SDS011;7165;52.388;4.928;2023-10-31T14:09:09;7.07;;;5.75;;
14171;SDS011;7165;52.388;4.928;2023-10-31T14:11:38;6.53;;;5.82;;
14171;SDS011;7165;52.388;4.928;2023-10-31T14:14:06;8.68;;;5.95;;
14171;SDS011;7165;52.388;4.928;2023-10-31T14:16:35;6.70;;;6.10;;
14171;SDS011;7165;52.388;4.928;2023-10-31T14:19:02;6.80;;;5.88;;
14171;SDS011;7165;52.388;4.928;2023-10-31T14:21:29;7.25;;;6.43;;
14171;SDS011;7165;52.388;4.928;2023-10-31T14:23:56;6.43;;;5.85;;
14171;SDS011;7165;52.388;4.928;2023-10-31T14:26:23;4.95;;;4.45;;
14171;SDS011;7165;52.388;4.928;2023-10-31T14:28:51;6.07;;;5.47;;
14171;SDS011;7165;52.388;4.928;2023-10-31T14:31:18;6.03;;;5.03;;
14171;SDS011;7165;52.388;4.928;2023-10-31T14:33:45;6.50;;;4.60;;
14171;SDS011;7165;52.388;4.928;2023-10-31T14:36:12;6.03;;;4.47;;
14171;SDS011;7165;52.388;4.928;2023-10-31T14:38:39;4.95;;;4.45;;
14171;SDS011;7165;52.388;4.928;2023-10-31T14:41:07;6.63;;;4.00;;
14171;SDS011;7165;52.388;4.928;2023-10-31T14:43:34;7.85;;;3.33;;
14171;SDS011;7165;52.388;4.928;2023-10-31T14:46:05;5.50;;;3.97;;
14171;SDS011;7165;52.388;4.928;2023-10-31T14:48:32;5.78;;;4.07;;
14171;SDS011;7165;52.388;4.928;2023-10-31T14:51:00;5.95;;;5.30;;
14171;SDS011;7165;52.388;4.928;2023-10-31T14:53:27;4.65;;;4.13;;
14171;SDS011;7165;52.388;4.928;2023-10-31T14:55:54;5.20;;;3.83;;
14171;SDS011;7165;52.388;4.928;2023-10-31T14:58:21;5.28;;;3.88;;
14171;SDS011;7165;52.388;4.928;2023-10-31T15:00:48;5.32;;;3.83;;
14171;SDS011;7165;52.388;4.928;2023-10-31T15:03:17;4.70;;;3.30;;
14171;SDS011;7165;52.388;4.928;2023-10-31T15:05:44;5.45;;;3.40;;